createdAt,value
2023-04-12T00:01:11.711Z,97257.28
2023-04-12T00:03:39.825Z,97245.22
2023-04-12T00:06:07.786Z,97237.44
2023-04-12T00:08:35.674Z,97224.38
2023-04-12T00:11:03.843Z,97216.59
2023-04-12T00:13:31.447Z,97220.44
2023-04-12T00:15:59.784Z,97216.97
2023-04-12T00:18:27.807Z,97205.91
2023-04-12T00:20:56.073Z,97206.09
2023-04-12T00:23:23.119Z,97200.97
2023-04-12T00:25:50.247Z,97204.44
2023-04-12T00:28:17.497Z,97196.50
2023-04-12T00:30:45.363Z,97198.31
2023-04-12T00:33:12.356Z,97198.13
2023-04-12T00:35:39.387Z,97224.00
2023-04-12T00:38:10.965Z,97219.91
2023-04-12T00:40:42.892Z,97219.91
2023-04-12T00:43:19.060Z,97221.53
2023-04-12T00:45:47.156Z,97226.66
2023-04-12T00:48:16.162Z,97228.69
2023-04-12T00:50:45.091Z,97229.69
2023-04-12T00:53:14.652Z,97238.81
2023-04-12T00:55:45.666Z,97251.25
2023-04-12T00:58:14.006Z,97257.56
2023-04-12T01:00:41.096Z,97267.50
2023-04-12T01:03:08.964Z,97265.69
2023-04-12T01:05:43.974Z,97268.53
2023-04-12T01:08:43.928Z,97273.16
2023-04-12T01:11:40.989Z,97268.91
2023-04-12T01:14:15.418Z,97264.59
2023-04-12T01:16:51.497Z,97270.25
2023-04-12T01:19:54.110Z,97277.41
2023-04-12T01:22:37.784Z,97269.59
2023-04-12T01:25:24.486Z,97264.63
2023-04-12T01:27:58.009Z,97270.97
2023-04-12T01:30:28.470Z,97270.13
2023-04-12T01:32:57.200Z,97278.91
2023-04-12T01:35:29.601Z,97269.50
2023-04-12T01:37:58.703Z,97277.59
2023-04-12T01:40:31.840Z,97281.28
2023-04-12T01:43:09.226Z,97283.25
2023-04-12T01:45:36.660Z,97290.56
2023-04-12T01:48:08.780Z,97302.84
2023-04-12T01:50:45.881Z,97304.81
2023-04-12T01:53:18.749Z,97318.06
2023-04-12T01:55:47.400Z,97321.09
2023-04-12T01:58:20.324Z,97324.75
2023-04-12T02:00:48.910Z,97327.56
2023-04-12T02:03:16.991Z,97341.63
2023-04-12T02:05:44.604Z,97350.75
2023-04-12T02:08:12.545Z,97350.97
2023-04-12T02:10:40.726Z,97356.06
2023-04-12T02:13:07.705Z,97359.75
2023-04-12T02:15:34.769Z,97368.69
2023-04-12T02:18:01.937Z,97366.22
2023-04-12T02:20:28.908Z,97370.50
2023-04-12T02:22:55.895Z,97381.09
2023-04-12T02:25:23.021Z,97398.00
2023-04-12T02:27:50.058Z,97392.88
2023-04-12T02:30:17.062Z,97387.75
2023-04-12T02:32:46.911Z,97414.25
2023-04-12T02:35:19.875Z,97400.88
2023-04-12T02:37:47.758Z,97409.31
2023-04-12T02:40:18.413Z,97396.06
2023-04-12T02:42:45.370Z,97419.91
2023-04-12T02:45:12.781Z,97415.59
2023-04-12T02:47:41.236Z,97416.63
2023-04-12T02:50:08.889Z,97424.72
2023-04-12T02:52:35.988Z,97413.13
2023-04-12T02:55:02.969Z,97423.88
2023-04-12T02:57:29.922Z,97426.53
2023-04-12T02:59:56.979Z,97433.69
2023-04-12T03:02:24.298Z,97432.84
2023-04-12T03:04:51.444Z,97441.44
2023-04-12T03:07:19.978Z,97430.03
2023-04-12T03:09:48.169Z,97436.50
2023-04-12T03:12:16.716Z,97435.84
2023-04-12T03:14:43.927Z,97439.47
2023-04-12T03:17:11.385Z,97440.97
2023-04-12T03:19:38.511Z,97443.78
2023-04-12T03:22:06.439Z,97442.97
2023-04-12T03:24:34.528Z,97446.44
2023-04-12T03:27:03.201Z,97454.41
2023-04-12T03:29:31.434Z,97446.78
2023-04-12T03:31:59.830Z,97445.97
2023-04-12T03:34:32.674Z,97453.91
2023-04-12T03:37:01.273Z,97449.44
2023-04-12T03:39:28.928Z,97453.06
2023-04-12T03:41:55.910Z,97456.75
2023-04-12T03:44:23.024Z,97461.22
2023-04-12T03:46:50.123Z,97458.75
2023-04-12T03:49:17.284Z,97457.09
2023-04-12T03:51:44.325Z,97467.69
2023-04-12T03:54:13.626Z,97474.97
2023-04-12T03:56:40.580Z,97481.91
2023-04-12T03:59:08.194Z,97477.78
2023-04-12T04:01:36.060Z,97491.69
2023-04-12T04:04:04.118Z,97489.22
2023-04-12T04:06:31.615Z,97490.19
2023-04-12T04:08:58.936Z,97493.88
2023-04-12T04:11:26.349Z,97501.81
2023-04-12T04:13:53.428Z,97499.31
2023-04-12T04:16:20.819Z,97497.50
2023-04-12T04:18:47.845Z,97500.16
2023-04-12T04:21:14.933Z,97498.66
2023-04-12T04:23:45.238Z,97504.78
2023-04-12T04:26:12.867Z,97508.28
2023-04-12T04:28:42.581Z,97511.25
2023-04-12T04:31:10.948Z,97516.25
2023-04-12T04:33:39.269Z,97522.84
2023-04-12T04:36:10.057Z,97526.81
2023-04-12T04:38:37.240Z,97529.94
2023-04-12T04:41:04.902Z,97534.88
2023-04-12T04:43:34.451Z,97522.38
2023-04-12T04:46:02.650Z,97536.59
2023-04-12T04:48:30.384Z,97541.56
2023-04-12T04:50:57.786Z,97535.94
2023-04-12T04:53:24.925Z,97532.13
2023-04-12T04:55:58.248Z,97523.00
2023-04-12T04:58:25.647Z,97528.13
2023-04-12T05:00:56.284Z,97535.22
2023-04-12T05:03:23.890Z,97529.59
2023-04-12T05:05:51.193Z,97541.31
2023-04-12T05:08:18.154Z,97537.84
2023-04-12T05:10:45.118Z,97548.13
2023-04-12T05:13:12.074Z,97559.75
2023-04-12T05:15:41.452Z,97566.69
2023-04-12T05:18:08.387Z,97570.31
2023-04-12T05:20:35.353Z,97570.47
2023-04-12T05:23:02.493Z,97588.03
2023-04-12T05:25:29.432Z,97577.59
2023-04-12T05:27:56.413Z,97592.16
2023-04-12T05:30:23.422Z,97578.38
2023-04-12T05:32:50.499Z,97592.47
2023-04-12T05:35:17.817Z,97600.13
2023-04-12T05:37:44.939Z,97589.22
2023-04-12T05:40:12.382Z,97595.84
2023-04-12T05:42:39.828Z,97602.31
2023-04-12T05:45:07.256Z,97600.81
2023-04-12T05:47:34.370Z,97612.41
2023-04-12T05:50:01.395Z,97620.69
2023-04-12T05:52:28.401Z,97615.56
2023-04-12T05:54:55.417Z,97625.31
2023-04-12T05:57:22.449Z,97632.59
2023-04-12T05:59:49.529Z,97625.69
2023-04-12T06:02:16.979Z,97618.72
2023-04-12T06:04:50.887Z,97599.19
2023-04-12T06:07:19.753Z,97627.16
2023-04-12T06:09:47.700Z,97626.31
2023-04-12T06:12:14.870Z,97631.97
2023-04-12T06:14:42.468Z,97626.47
2023-04-12T06:17:09.557Z,97638.91
2023-04-12T06:19:36.653Z,97642.38
2023-04-12T06:22:03.674Z,97637.59
2023-04-12T06:24:30.823Z,97643.53
2023-04-12T06:26:58.065Z,97666.72
2023-04-12T06:29:25.180Z,97670.13
2023-04-12T06:31:52.336Z,97648.44
2023-04-12T06:34:19.491Z,97654.38
2023-04-12T06:36:48.300Z,97670.44
2023-04-12T06:39:17.052Z,97666.66
2023-04-12T06:41:44.421Z,97678.59
2023-04-12T06:44:11.729Z,97685.50
2023-04-12T06:46:38.893Z,97683.56
2023-04-12T06:49:06.236Z,97679.06
2023-04-12T06:51:35.094Z,97691.50
2023-04-12T06:54:02.569Z,97699.44
2023-04-12T06:56:29.669Z,97703.88
2023-04-12T06:58:57.598Z,97691.63
2023-04-12T07:01:25.270Z,97700.72
2023-04-12T07:03:53.183Z,97712.16
2023-04-12T07:06:25.545Z,97709.69
2023-04-12T07:08:53.653Z,97721.25
2023-04-12T07:11:23.315Z,97706.19
2023-04-12T07:13:51.765Z,97730.16
2023-04-12T07:16:19.253Z,97722.22
2023-04-12T07:18:46.812Z,97734.66
2023-04-12T07:21:14.880Z,97728.50
2023-04-12T07:23:42.015Z,97720.72
2023-04-12T07:26:09.434Z,97734.97
2023-04-12T07:28:36.922Z,97744.72
2023-04-12T07:31:07.833Z,97734.13
2023-04-12T07:33:37.763Z,97739.75
2023-04-12T07:36:07.310Z,97730.13
2023-04-12T07:38:34.685Z,97760.91
2023-04-12T07:41:02.111Z,97751.28
2023-04-12T07:43:30.123Z,97762.06
2023-04-12T07:45:57.466Z,97775.41
2023-04-12T07:48:25.174Z,97776.44
2023-04-12T07:50:53.998Z,97784.38
2023-04-12T07:53:27.050Z,97783.53
2023-04-12T07:55:56.585Z,97761.53
2023-04-12T07:58:25.258Z,97777.41
2023-04-12T08:00:54.288Z,97771.97
2023-04-12T08:03:21.576Z,97775.41
2023-04-12T08:05:53.881Z,97776.56
2023-04-12T08:08:22.651Z,97772.09
2023-04-12T08:10:51.758Z,97785.31
2023-04-12T08:13:19.681Z,97771.44
2023-04-12T08:15:49.974Z,97787.28
2023-04-12T08:18:17.229Z,97789.94
2023-04-12T08:20:44.641Z,97795.06
2023-04-12T08:23:12.491Z,97801.19
2023-04-12T08:25:40.124Z,97805.63
2023-04-12T08:28:10.112Z,97810.25
2023-04-12T08:30:37.580Z,97807.63
2023-04-12T08:33:04.761Z,97816.38
2023-04-12T08:35:32.344Z,97813.75
2023-04-12T08:38:00.784Z,97824.31
2023-04-12T08:40:28.091Z,97815.41
2023-04-12T08:42:56.529Z,97816.38
2023-04-12T08:45:30.169Z,97824.16
2023-04-12T08:47:57.952Z,97826.00
2023-04-12T08:50:26.832Z,97823.34
2023-04-12T08:52:54.788Z,97819.69
2023-04-12T08:55:22.715Z,97826.78
2023-04-12T08:57:51.918Z,97837.38
2023-04-12T09:00:21.537Z,97834.59
2023-04-12T09:02:49.654Z,97842.66
2023-04-12T09:05:17.187Z,97845.78
2023-04-12T09:07:44.751Z,97843.47
2023-04-12T09:10:25.923Z,97842.63
2023-04-12T09:12:54.413Z,97849.06
2023-04-12T09:15:21.902Z,97846.59
2023-04-12T09:17:50.398Z,97854.69
2023-04-12T09:20:18.009Z,97845.91
2023-04-12T09:22:46.996Z,97847.72
2023-04-12T09:25:16.281Z,97857.34
2023-04-12T09:27:52.015Z,97855.50
2023-04-12T09:30:20.962Z,97854.53
2023-04-12T09:32:51.372Z,97868.72
2023-04-12T09:35:19.309Z,97853.69
2023-04-12T09:37:46.502Z,97863.28
2023-04-12T09:40:14.637Z,97864.94
2023-04-12T09:42:54.713Z,97855.34
2023-04-12T09:45:26.861Z,97867.56
2023-04-12T09:47:55.396Z,97866.06
2023-04-12T09:50:30.831Z,97869.56
2023-04-12T09:52:59.617Z,97867.91
2023-04-12T09:55:29.092Z,97866.25
2023-04-12T09:57:57.313Z,97872.50
2023-04-12T10:00:27.557Z,97876.81
2023-04-12T10:02:58.509Z,97870.56
2023-04-12T10:05:27.226Z,97865.41
2023-04-12T10:07:56.171Z,97872.38
2023-04-12T10:10:23.857Z,97864.56
2023-04-12T10:12:51.408Z,97864.56
2023-04-12T10:15:21.368Z,97859.59
2023-04-12T10:17:54.606Z,97857.47
2023-04-12T10:20:24.771Z,97860.28
2023-04-12T10:22:54.259Z,97862.75
2023-04-12T10:25:24.464Z,97868.28
2023-04-12T10:27:51.676Z,97863.13
2023-04-12T10:30:27.580Z,97865.63
2023-04-12T10:33:04.075Z,97858.34
2023-04-12T10:35:56.181Z,97851.09
2023-04-12T10:38:28.605Z,97861.34
2023-04-12T10:41:14.924Z,97858.22
2023-04-12T10:43:46.754Z,97859.41
2023-04-12T10:46:37.887Z,97861.75
2023-04-12T10:49:15.835Z,97860.06
2023-04-12T10:52:01.470Z,97863.72
2023-04-12T10:54:32.976Z,97860.59
2023-04-12T10:57:00.255Z,97864.09
2023-04-12T10:59:57.413Z,97864.75
2023-04-12T11:02:25.655Z,97865.41
2023-04-12T11:05:06.824Z,97876.69
2023-04-12T11:07:44.691Z,97870.38
2023-04-12T11:10:22.116Z,97876.03
2023-04-12T11:12:51.129Z,97870.59
2023-04-12T11:15:18.944Z,97873.25
2023-04-12T11:17:55.286Z,97877.38
2023-04-12T11:20:24.815Z,97871.25
2023-04-12T11:22:54.301Z,97872.09
2023-04-12T11:25:21.614Z,97870.41
2023-04-12T11:27:53.326Z,97879.06
2023-04-12T11:30:21.192Z,97875.09
2023-04-12T11:32:48.703Z,97876.63
2023-04-12T11:35:23.127Z,97878.44
2023-04-12T11:37:50.601Z,97889.16
2023-04-12T11:40:17.845Z,97885.69
2023-04-12T11:42:45.311Z,97887.38
2023-04-12T11:45:18.130Z,97894.16
2023-04-12T11:47:47.593Z,97902.78
2023-04-12T11:50:29.132Z,97905.25
2023-04-12T11:52:56.313Z,97905.59
2023-04-12T11:55:24.031Z,97908.94
2023-04-12T11:57:56.426Z,97901.66
2023-04-12T12:00:24.878Z,97906.63
2023-04-12T12:03:06.822Z,97915.41
2023-04-12T12:05:37.737Z,97923.84
2023-04-12T12:08:08.053Z,97914.94
2023-04-12T12:10:46.935Z,97923.53
2023-04-12T12:13:23.018Z,97917.91
2023-04-12T12:15:52.945Z,97921.22
2023-04-12T12:18:20.270Z,97926.53
2023-04-12T12:20:51.273Z,97934.16
2023-04-12T12:23:31.849Z,97918.94
2023-04-12T12:26:14.181Z,97925.22
2023-04-12T12:28:45.250Z,97927.38
2023-04-12T12:31:12.990Z,97936.16
2023-04-12T12:33:46.642Z,97924.56
2023-04-12T12:36:18.953Z,97927.91
2023-04-12T12:38:46.159Z,97937.50
2023-04-12T12:41:24.073Z,97939.16
2023-04-12T12:43:53.302Z,97940.84
2023-04-12T12:46:20.996Z,97939.81
2023-04-12T12:48:49.080Z,97943.13
2023-04-12T12:51:22.790Z,97941.31
2023-04-12T12:53:49.841Z,97947.44
2023-04-12T12:56:17.125Z,97942.16
2023-04-12T12:58:44.677Z,97951.06
2023-04-12T13:01:11.980Z,97965.16
2023-04-12T13:03:39.464Z,97959.72
2023-04-12T13:06:07.149Z,97965.00
2023-04-12T13:08:35.864Z,97966.16
2023-04-12T13:11:03.733Z,97970.31
2023-04-12T13:13:30.838Z,97979.25
2023-04-12T13:16:00.950Z,97968.66
2023-04-12T13:18:28.188Z,97981.06
2023-04-12T13:20:55.738Z,97980.91
2023-04-12T13:23:22.944Z,97979.91
2023-04-12T13:25:50.161Z,97982.09
2023-04-12T13:28:17.831Z,97989.53
2023-04-12T13:30:45.132Z,97989.38
2023-04-12T13:33:15.378Z,97989.22
2023-04-12T13:35:46.368Z,97989.06
2023-04-12T13:38:13.951Z,97990.88
2023-04-12T13:40:41.447Z,97995.38
2023-04-12T13:43:09.176Z,98004.94
2023-04-12T13:45:46.728Z,98002.47
2023-04-12T13:48:14.336Z,98008.44
2023-04-12T13:50:43.680Z,98007.25
2023-04-12T13:53:14.003Z,98009.56
2023-04-12T13:55:41.883Z,98012.38
2023-04-12T13:58:09.846Z,98008.06
2023-04-12T14:00:37.596Z,98010.53
2023-04-12T14:03:05.029Z,98015.84
2023-04-12T14:05:32.430Z,98023.63
2023-04-12T14:07:59.598Z,98011.22
2023-04-12T14:10:29.632Z,98015.03
2023-04-12T14:12:56.671Z,98014.84
2023-04-12T14:15:24.028Z,98016.53
2023-04-12T14:17:51.984Z,98016.53
2023-04-12T14:20:19.971Z,98013.88
2023-04-12T14:22:48.150Z,98014.34
2023-04-12T14:25:16.150Z,98009.03
2023-04-12T14:27:44.871Z,98008.53
2023-04-12T14:30:12.917Z,98010.34
2023-04-12T14:32:40.378Z,98013.84
2023-04-12T14:35:10.063Z,98015.00
2023-04-12T14:37:38.593Z,98017.66
2023-04-12T14:40:09.470Z,98012.34
2023-04-12T14:42:38.405Z,98023.91
2023-04-12T14:45:10.182Z,98015.31
2023-04-12T14:47:37.891Z,98015.63
2023-04-12T14:50:05.308Z,98025.38
2023-04-12T14:52:32.770Z,98028.84
2023-04-12T14:54:59.945Z,98031.50
2023-04-12T14:57:28.300Z,98024.53
2023-04-12T14:59:57.495Z,98031.50
2023-04-12T15:02:24.962Z,98018.09
2023-04-12T15:04:52.557Z,98020.91
2023-04-12T15:07:20.106Z,98023.88
2023-04-12T15:09:47.142Z,98035.44
2023-04-12T15:12:14.328Z,98030.31
2023-04-12T15:14:42.121Z,98034.78
2023-04-12T15:17:11.298Z,98034.59
2023-04-12T15:19:38.440Z,98035.41
2023-04-12T15:22:05.720Z,98030.09
2023-04-12T15:24:34.279Z,98030.09
2023-04-12T15:27:03.681Z,98037.91
2023-04-12T15:29:32.276Z,98035.41
2023-04-12T15:31:59.953Z,98043.69
2023-04-12T15:34:29.060Z,98041.69
2023-04-12T15:36:56.849Z,98048.97
2023-04-12T15:39:24.224Z,98042.00
2023-04-12T15:41:51.481Z,98046.66
2023-04-12T15:44:19.726Z,98044.78
2023-04-12T15:46:53.321Z,98046.66
2023-04-12T15:49:30.522Z,98040.34
2023-04-12T15:51:57.833Z,98031.41
2023-04-12T15:54:25.590Z,98033.41
2023-04-12T15:56:53.565Z,98040.34
2023-04-12T15:59:20.803Z,98032.41
2023-04-12T16:01:49.287Z,98041.09
2023-04-12T16:04:21.734Z,98037.13
2023-04-12T16:06:48.985Z,98041.88
2023-04-12T16:09:18.086Z,98043.72
2023-04-12T16:11:48.085Z,98044.03
2023-04-12T16:14:15.924Z,98045.84
2023-04-12T16:16:44.048Z,98055.59
2023-04-12T16:19:11.511Z,98065.06
2023-04-12T16:21:43.311Z,98063.25
2023-04-12T16:24:12.417Z,98063.59
2023-04-12T16:26:42.130Z,98066.19
2023-04-12T16:29:11.262Z,98074.75
2023-04-12T16:31:39.198Z,98076.91
2023-04-12T16:34:06.546Z,98085.81
2023-04-12T16:36:33.588Z,98084.50
2023-04-12T16:39:04.060Z,98089.25
2023-04-12T16:41:32.099Z,98089.25
2023-04-12T16:44:02.227Z,98093.03
2023-04-12T16:46:29.702Z,98098.63
2023-04-12T16:48:59.624Z,98098.63
2023-04-12T16:51:27.604Z,98104.09
2023-04-12T16:54:04.895Z,98107.72
2023-04-12T16:56:32.916Z,98106.06
2023-04-12T16:59:00.825Z,98119.41
2023-04-12T17:01:28.783Z,98120.28
2023-04-12T17:03:57.468Z,98116.22
2023-04-12T17:06:24.759Z,98124.19
2023-04-12T17:08:54.177Z,98125.31
2023-04-12T17:11:21.561Z,98134.75
2023-04-12T17:13:50.801Z,98136.84
2023-04-12T17:16:18.129Z,98131.91
2023-04-12T17:18:45.127Z,98143.16
2023-04-12T17:21:14.882Z,98134.41
2023-04-12T17:23:42.090Z,98160.34
2023-04-12T17:26:11.349Z,98156.84
2023-04-12T17:28:40.025Z,98155.63
2023-04-12T17:31:09.291Z,98148.41
2023-04-12T17:33:38.023Z,98154.75
2023-04-12T17:38:38.140Z,98168.03
2023-04-12T17:41:05.505Z,98160.94
2023-04-12T17:43:32.631Z,98158.69
2023-04-12T17:46:03.928Z,98158.38
2023-04-12T17:48:32.164Z,98162.53
2023-04-12T17:51:00.684Z,98161.53
2023-04-12T17:53:27.764Z,98174.09
2023-04-12T17:55:55.048Z,98168.78
2023-04-12T17:58:22.285Z,98173.50
2023-04-12T18:00:49.446Z,98172.91
2023-04-12T18:03:17.111Z,98169.63
2023-04-12T18:05:46.580Z,98174.63
2023-04-12T18:08:14.259Z,98178.25
2023-04-12T18:10:41.580Z,98188.63
2023-04-12T18:13:09.127Z,98185.09
2023-04-12T18:15:36.612Z,98188.38
2023-04-12T18:18:08.374Z,98185.97
2023-04-12T18:20:35.886Z,98190.81
2023-04-12T18:23:13.566Z,98189.66
2023-04-12T18:25:41.236Z,98199.97
2023-04-12T18:28:08.854Z,98198.75
2023-04-12T18:30:36.252Z,98203.22
2023-04-12T18:33:04.428Z,98211.94
2023-04-12T18:35:32.071Z,98213.75
2023-04-12T18:37:59.400Z,98220.75
2023-04-12T18:40:27.922Z,98227.78
2023-04-12T18:42:55.689Z,98229.19
2023-04-12T18:45:24.218Z,98239.06
2023-04-12T18:47:54.155Z,98235.63
2023-04-12T18:50:23.079Z,98247.25
2023-04-12T18:52:52.500Z,98244.13
2023-04-12T18:55:21.096Z,98251.16
2023-04-12T18:57:49.921Z,98260.47
2023-04-12T19:00:18.298Z,98266.28
2023-04-12T19:02:49.435Z,98276.41
2023-04-12T19:05:16.842Z,98280.91
2023-04-12T19:07:46.119Z,98286.09
2023-04-12T19:10:15.120Z,98299.34
2023-04-12T19:12:42.754Z,98299.50
2023-04-12T19:15:11.132Z,98304.34
2023-04-12T19:17:41.070Z,98311.00
2023-04-12T19:20:10.084Z,98312.50
2023-04-12T19:22:38.061Z,98323.16
2023-04-12T19:25:06.204Z,98324.44
2023-04-12T19:27:34.979Z,98323.47
2023-04-12T19:30:04.644Z,98320.19
2023-04-12T19:32:32.779Z,98327.34
2023-04-12T19:35:02.814Z,98323.09
2023-04-12T19:37:35.039Z,98319.22
2023-04-12T19:40:03.970Z,98333.53
2023-04-12T19:42:33.744Z,98331.59
2023-04-12T19:45:03.488Z,98334.28
2023-04-12T19:47:32.531Z,98330.16
2023-04-12T19:50:01.918Z,98333.31
2023-04-12T19:52:30.545Z,98338.63
2023-04-12T19:55:01.778Z,98334.31
2023-04-12T19:57:29.924Z,98337.16
2023-04-12T19:59:57.368Z,98341.47
2023-04-12T20:02:28.278Z,98339.16
2023-04-12T20:04:57.826Z,98339.00
2023-04-12T20:07:27.290Z,98336.19
2023-04-12T20:09:56.098Z,98344.69
2023-04-12T20:12:24.857Z,98343.84
2023-04-12T20:14:52.881Z,98347.03
2023-04-12T20:17:20.708Z,98353.78
2023-04-12T20:19:58.775Z,98341.13
2023-04-12T20:22:26.911Z,98345.16
2023-04-12T20:24:54.854Z,98341.84
2023-04-12T20:27:24.846Z,98344.38
2023-04-12T20:29:55.714Z,98334.75
2023-04-12T20:32:33.328Z,98343.38
2023-04-12T20:35:26.606Z,98342.22
2023-04-12T20:38:00.276Z,98337.75
2023-04-12T20:40:31.437Z,98339.41
2023-04-12T20:42:58.703Z,98350.03
2023-04-12T20:45:26.455Z,98346.50
2023-04-12T20:47:54.249Z,98351.81
2023-04-12T20:50:25.162Z,98351.34
2023-04-12T20:52:53.705Z,98356.84
2023-04-12T20:55:24.257Z,98358.66
2023-04-12T20:57:57.124Z,98354.28
2023-04-12T21:00:25.849Z,98356.28
2023-04-12T21:02:55.393Z,98359.59
2023-04-12T21:05:23.351Z,98357.97
2023-04-12T21:07:52.418Z,98349.53
2023-04-12T21:10:20.041Z,98366.78
2023-04-12T21:12:50.724Z,98359.53
2023-04-12T21:15:22.412Z,98368.16
2023-04-12T21:17:55.301Z,98357.53
2023-04-12T21:20:25.904Z,98361.16
2023-04-12T21:22:53.808Z,98368.28
2023-04-12T21:25:23.552Z,98361.16
2023-04-12T21:27:51.414Z,98361.16
2023-04-12T21:30:19.780Z,98358.81
2023-04-12T21:32:47.102Z,98363.81
2023-04-12T21:35:16.947Z,98366.47
2023-04-12T21:37:46.991Z,98372.09
2023-04-12T21:40:15.329Z,98366.78
2023-04-12T21:42:44.673Z,98373.78
2023-04-12T21:45:16.017Z,98370.47
2023-04-12T21:47:43.903Z,98376.09
2023-04-12T21:50:12.681Z,98376.53
2023-04-12T21:52:42.567Z,98381.94
2023-04-12T21:55:11.279Z,98389.03
2023-04-12T21:57:39.252Z,98378.41
2023-04-12T22:00:09.344Z,98385.56
2023-04-12T22:02:38.697Z,98384.72
2023-04-12T22:05:07.286Z,98384.06
2023-04-12T22:07:34.426Z,98380.88
2023-04-12T22:10:03.122Z,98379.38
2023-04-12T22:12:34.310Z,98383.16
2023-04-12T22:15:05.968Z,98387.94
2023-04-12T22:17:34.302Z,98389.59
2023-04-12T22:20:01.676Z,98393.22
2023-04-12T22:22:30.143Z,98396.41
2023-04-12T22:25:00.210Z,98392.03
2023-04-12T22:27:27.489Z,98397.09
2023-04-12T22:29:54.914Z,98400.22
2023-04-12T22:32:22.418Z,98399.66
2023-04-12T22:34:58.057Z,98401.56
2023-04-12T22:37:35.427Z,98394.28
2023-04-12T22:40:02.875Z,98394.28
2023-04-12T22:42:30.442Z,98397.94
2023-04-12T22:44:58.525Z,98386.78
2023-04-12T22:47:27.085Z,98390.75
2023-04-12T22:50:02.142Z,98393.53
2023-04-12T22:52:32.046Z,98397.19
2023-04-12T22:54:59.313Z,98392.19
2023-04-12T22:57:26.478Z,98395.81
2023-04-12T22:59:54.269Z,98394.47
2023-04-12T23:02:21.369Z,98392.13
2023-04-12T23:04:51.235Z,98396.72
2023-04-12T23:07:18.820Z,98392.41
2023-04-12T23:09:46.145Z,98399.81
2023-04-12T23:12:14.103Z,98404.28
2023-04-12T23:14:41.237Z,98409.75
2023-04-12T23:19:50.708Z,98419.13
2023-04-12T23:22:48.605Z,98417.63
2023-04-12T23:25:24.997Z,98426.03
2023-04-12T23:27:52.000Z,98422.53
2023-04-12T23:30:19.241Z,98427.28
2023-04-12T23:32:46.970Z,98430.09
2023-04-12T23:35:14.940Z,98432.88
2023-04-12T23:37:43.512Z,98435.69
2023-04-12T23:40:14.944Z,98435.16
2023-04-12T23:42:43.807Z,98439.75
2023-04-12T23:45:12.309Z,98442.56
2023-04-12T23:47:39.303Z,98443.84
2023-04-12T23:50:07.501Z,98441.19
2023-04-12T23:52:34.591Z,98436.06
2023-04-12T23:55:03.163Z,98449.44
2023-04-12T23:57:30.349Z,98448.75
2023-04-12T23:59:57.505Z,98447.91
